sensor_id;sensor_type;location;lat;lon;timestamp;temperature;humidity
9193;DHT22;4631;49.296;10.560;2023-03-14T00:01:20;8.70;99.90
9193;DHT22;4631;49.296;10.560;2023-03-14T00:03:47;8.70;99.90
9193;DHT22;4631;49.296;10.560;2023-03-14T00:06:14;8.70;99.90
9193;DHT22;4631;49.296;10.560;2023-03-14T00:08:41;8.70;99.90
9193;DHT22;4631;49.296;10.560;2023-03-14T00:11:10;8.70;99.90
9193;DHT22;4631;49.296;10.560;2023-03-14T00:13:37;8.60;99.90
9193;DHT22;4631;49.296;10.560;2023-03-14T00:16:04;8.70;99.90
9193;DHT22;4631;49.296;10.560;2023-03-14T00:18:31;8.70;99.90
9193;DHT22;4631;49.296;10.560;2023-03-14T00:20:58;8.70;99.90
9193;DHT22;4631;49.296;10.560;2023-03-14T00:23:24;8.70;99.90
9193;DHT22;4631;49.296;10.560;2023-03-14T00:25:51;8.80;99.90
9193;DHT22;4631;49.296;10.560;2023-03-14T00:28:19;8.70;99.90
9193;DHT22;4631;49.296;10.560;2023-03-14T00:30:47;8.70;99.90
9193;DHT22;4631;49.296;10.560;2023-03-14T00:33:14;8.70;99.90
9193;DHT22;4631;49.296;10.560;2023-03-14T00:35:40;8.70;99.90
9193;DHT22;4631;49.296;10.560;2023-03-14T00:38:07;8.80;99.90
9193;DHT22;4631;49.296;10.560;2023-03-14T00:40:34;8.80;99.90
9193;DHT22;4631;49.296;10.560;2023-03-14T00:43:00;8.80;99.90
9193;DHT22;4631;49.296;10.560;2023-03-14T00:45:28;8.80;99.90
9193;DHT22;4631;49.296;10.560;2023-03-14T00:47:55;8.80;99.90
9193;DHT22;4631;49.296;10.560;2023-03-14T00:50:21;8.80;99.90
9193;DHT22;4631;49.296;10.560;2023-03-14T00:52:48;8.80;99.90
9193;DHT22;4631;49.296;10.560;2023-03-14T00:55:15;8.70;99.90
9193;DHT22;4631;49.296;10.560;2023-03-14T00:57:41;8.80;99.90
9193;DHT22;4631;49.296;10.560;2023-03-14T01:00:08;8.70;99.90
9193;DHT22;4631;49.296;10.560;2023-03-14T01:02:38;8.70;99.90
9193;DHT22;4631;49.296;10.560;2023-03-14T01:05:05;8.70;99.90
9193;DHT22;4631;49.296;10.560;2023-03-14T01:07:32;8.70;99.90
9193;DHT22;4631;49.296;10.560;2023-03-14T01:09:59;8.70;99.90
9193;DHT22;4631;49.296;10.560;2023-03-14T01:12:26;8.70;99.90
9193;DHT22;4631;49.296;10.560;2023-03-14T01:14:53;8.70;99.90
9193;DHT22;4631;49.296;10.560;2023-03-14T01:17:20;8.60;99.90
9193;DHT22;4631;49.296;10.560;2023-03-14T01:19:49;8.70;99.90
9193;DHT22;4631;49.296;10.560;2023-03-14T01:22:15;8.70;99.90
9193;DHT22;4631;49.296;10.560;2023-03-14T01:24:42;8.70;99.90
9193;DHT22;4631;49.296;10.560;2023-03-14T01:27:08;8.70;99.90
9193;DHT22;4631;49.296;10.560;2023-03-14T01:29:35;8.70;99.90
9193;DHT22;4631;49.296;10.560;2023-03-14T01:32:02;8.70;99.90
9193;DHT22;4631;49.296;10.560;2023-03-14T01:34:28;8.70;99.90
9193;DHT22;4631;49.296;10.560;2023-03-14T01:36:56;8.70;99.90
9193;DHT22;4631;49.296;10.560;2023-03-14T01:39:23;8.80;99.90
9193;DHT22;4631;49.296;10.560;2023-03-14T01:41:49;8.80;99.90
9193;DHT22;4631;49.296;10.560;2023-03-14T01:44:16;8.80;99.90
9193;DHT22;4631;49.296;10.560;2023-03-14T01:46:43;8.80;99.90
9193;DHT22;4631;49.296;10.560;2023-03-14T01:49:12;8.80;99.90
9193;DHT22;4631;49.296;10.560;2023-03-14T01:51:41;8.90;99.90
9193;DHT22;4631;49.296;10.560;2023-03-14T01:54:11;8.90;99.90
9193;DHT22;4631;49.296;10.560;2023-03-14T01:56:40;8.90;99.90
9193;DHT22;4631;49.296;10.560;2023-03-14T01:59:08;8.90;99.90
9193;DHT22;4631;49.296;10.560;2023-03-14T02:01:34;8.90;99.90
9193;DHT22;4631;49.296;10.560;2023-03-14T02:04:02;8.90;99.90
9193;DHT22;4631;49.296;10.560;2023-03-14T02:06:32;8.90;99.90
9193;DHT22;4631;49.296;10.560;2023-03-14T02:09:00;8.80;99.90
9193;DHT22;4631;49.296;10.560;2023-03-14T02:11:29;8.90;99.90
9193;DHT22;4631;49.296;10.560;2023-03-14T02:13:56;8.90;99.90
9193;DHT22;4631;49.296;10.560;2023-03-14T02:16:24;8.90;99.90
9193;DHT22;4631;49.296;10.560;2023-03-14T02:18:51;8.90;99.90
9193;DHT22;4631;49.296;10.560;2023-03-14T02:21:18;8.90;99.90
9193;DHT22;4631;49.296;10.560;2023-03-14T02:23:51;8.90;99.90
9193;DHT22;4631;49.296;10.560;2023-03-14T02:26:20;8.90;99.90
9193;DHT22;4631;49.296;10.560;2023-03-14T02:28:50;8.90;99.90
9193;DHT22;4631;49.296;10.560;2023-03-14T02:31:18;8.90;99.90
9193;DHT22;4631;49.296;10.560;2023-03-14T02:33:46;8.90;99.90
9193;DHT22;4631;49.296;10.560;2023-03-14T02:36:14;8.90;99.90
9193;DHT22;4631;49.296;10.560;2023-03-14T02:38:41;8.90;99.90
9193;DHT22;4631;49.296;10.560;2023-03-14T02:41:12;8.90;99.90
9193;DHT22;4631;49.296;10.560;2023-03-14T02:43:38;8.90;99.90
9193;DHT22;4631;49.296;10.560;2023-03-14T02:46:07;8.90;99.90
9193;DHT22;4631;49.296;10.560;2023-03-14T02:48:37;8.90;99.90
9193;DHT22;4631;49.296;10.560;2023-03-14T02:51:05;8.80;99.90
9193;DHT22;4631;49.296;10.560;2023-03-14T02:53:34;8.80;99.90
9193;DHT22;4631;49.296;10.560;2023-03-14T02:56:01;8.80;99.90
9193;DHT22;4631;49.296;10.560;2023-03-14T02:58:29;8.80;99.90
9193;DHT22;4631;49.296;10.560;2023-03-14T03:00:56;8.80;99.90
9193;DHT22;4631;49.296;10.560;2023-03-14T03:03:24;8.80;99.90
9193;DHT22;4631;49.296;10.560;2023-03-14T03:05:51;8.80;99.90
9193;DHT22;4631;49.296;10.560;2023-03-14T03:08:18;8.80;99.90
9193;DHT22;4631;49.296;10.560;2023-03-14T03:10:45;8.70;99.90
9193;DHT22;4631;49.296;10.560;2023-03-14T03:13:12;8.70;99.90
9193;DHT22;4631;49.296;10.560;2023-03-14T03:15:38;8.70;99.90
9193;DHT22;4631;49.296;10.560;2023-03-14T03:18:05;8.70;99.90
9193;DHT22;4631;49.296;10.560;2023-03-14T03:20:33;8.70;99.90
9193;DHT22;4631;49.296;10.560;2023-03-14T03:23:00;8.60;99.90
9193;DHT22;4631;49.296;10.560;2023-03-14T03:25:27;8.60;99.90
9193;DHT22;4631;49.296;10.560;2023-03-14T03:27:53;8.60;99.90
9193;DHT22;4631;49.296;10.560;2023-03-14T03:30:20;8.70;99.90
9193;DHT22;4631;49.296;10.560;2023-03-14T03:32:47;8.60;99.90
9193;DHT22;4631;49.296;10.560;2023-03-14T03:35:13;8.60;99.90
9193;DHT22;4631;49.296;10.560;2023-03-14T03:37:41;8.60;99.90
9193;DHT22;4631;49.296;10.560;2023-03-14T03:40:08;8.70;99.90
9193;DHT22;4631;49.296;10.560;2023-03-14T03:42:35;8.70;99.90
9193;DHT22;4631;49.296;10.560;2023-03-14T03:45:02;8.60;99.90
9193;DHT22;4631;49.296;10.560;2023-03-14T03:47:29;8.60;99.90
9193;DHT22;4631;49.296;10.560;2023-03-14T03:49:56;8.60;99.90
9193;DHT22;4631;49.296;10.560;2023-03-14T03:52:23;8.60;99.90
9193;DHT22;4631;49.296;10.560;2023-03-14T03:54:51;8.60;99.90
9193;DHT22;4631;49.296;10.560;2023-03-14T03:57:17;8.60;99.90
9193;DHT22;4631;49.296;10.560;2023-03-14T03:59:44;8.60;99.90
9193;DHT22;4631;49.296;10.560;2023-03-14T04:02:11;8.60;99.90
9193;DHT22;4631;49.296;10.560;2023-03-14T04:04:37;8.60;99.90
9193;DHT22;4631;49.296;10.560;2023-03-14T04:07:04;8.60;99.90
9193;DHT22;4631;49.296;10.560;2023-03-14T04:09:31;8.60;99.90
9193;DHT22;4631;49.296;10.560;2023-03-14T04:11:59;8.60;99.90
9193;DHT22;4631;49.296;10.560;2023-03-14T04:14:25;8.60;99.90
9193;DHT22;4631;49.296;10.560;2023-03-14T04:16:52;8.50;99.90
9193;DHT22;4631;49.296;10.560;2023-03-14T04:19:19;8.50;99.90
9193;DHT22;4631;49.296;10.560;2023-03-14T04:21:46;8.60;99.90
9193;DHT22;4631;49.296;10.560;2023-03-14T04:24:13;8.50;99.90
9193;DHT22;4631;49.296;10.560;2023-03-14T04:26:39;8.60;99.90
9193;DHT22;4631;49.296;10.560;2023-03-14T04:29:07;8.60;99.90
9193;DHT22;4631;49.296;10.560;2023-03-14T04:31:34;8.50;99.90
9193;DHT22;4631;49.296;10.560;2023-03-14T04:34:00;8.60;99.90
9193;DHT22;4631;49.296;10.560;2023-03-14T04:36:27;8.60;99.90
9193;DHT22;4631;49.296;10.560;2023-03-14T04:38:54;8.60;99.90
9193;DHT22;4631;49.296;10.560;2023-03-14T04:41:20;8.60;99.90
9193;DHT22;4631;49.296;10.560;2023-03-14T04:43:47;8.60;99.90
9193;DHT22;4631;49.296;10.560;2023-03-14T04:46:15;8.60;99.90
9193;DHT22;4631;49.296;10.560;2023-03-14T04:48:42;8.60;99.90
9193;DHT22;4631;49.296;10.560;2023-03-14T04:51:08;8.60;99.90
9193;DHT22;4631;49.296;10.560;2023-03-14T04:53:35;8.60;99.90
9193;DHT22;4631;49.296;10.560;2023-03-14T04:56:02;8.60;99.90
9193;DHT22;4631;49.296;10.560;2023-03-14T04:58:29;8.60;99.90
9193;DHT22;4631;49.296;10.560;2023-03-14T05:00:56;8.60;99.90
9193;DHT22;4631;49.296;10.560;2023-03-14T05:03:29;8.60;99.90
9193;DHT22;4631;49.296;10.560;2023-03-14T05:05:55;8.60;99.90
9193;DHT22;4631;49.296;10.560;2023-03-14T05:08:22;8.50;99.90
9193;DHT22;4631;49.296;10.560;2023-03-14T05:10:51;8.50;99.90
9193;DHT22;4631;49.296;10.560;2023-03-14T05:13:18;8.50;99.90
9193;DHT22;4631;49.296;10.560;2023-03-14T05:15:44;8.50;99.90
9193;DHT22;4631;49.296;10.560;2023-03-14T05:18:11;8.50;99.90
9193;DHT22;4631;49.296;10.560;2023-03-14T05:20:39;8.50;99.90
9193;DHT22;4631;49.296;10.560;2023-03-14T05:23:05;8.50;99.90
9193;DHT22;4631;49.296;10.560;2023-03-14T05:25:32;8.40;99.90
9193;DHT22;4631;49.296;10.560;2023-03-14T05:27:59;8.50;99.90
9193;DHT22;4631;49.296;10.560;2023-03-14T05:30:25;8.50;99.90
9193;DHT22;4631;49.296;10.560;2023-03-14T05:32:53;8.40;99.90
9193;DHT22;4631;49.296;10.560;2023-03-14T05:35:20;8.50;99.90
9193;DHT22;4631;49.296;10.560;2023-03-14T05:37:48;8.40;99.90
9193;DHT22;4631;49.296;10.560;2023-03-14T05:40:15;8.40;99.90
9193;DHT22;4631;49.296;10.560;2023-03-14T05:42:41;8.40;99.90
9193;DHT22;4631;49.296;10.560;2023-03-14T05:45:08;8.40;99.90
9193;DHT22;4631;49.296;10.560;2023-03-14T05:47:35;8.40;99.90
9193;DHT22;4631;49.296;10.560;2023-03-14T05:52:31;8.40;99.90
9193;DHT22;4631;49.296;10.560;2023-03-14T05:54:59;8.40;99.90
9193;DHT22;4631;49.296;10.560;2023-03-14T05:57:25;8.40;99.90
9193;DHT22;4631;49.296;10.560;2023-03-14T05:59:52;8.40;99.90
9193;DHT22;4631;49.296;10.560;2023-03-14T06:02:19;8.40;99.90
9193;DHT22;4631;49.296;10.560;2023-03-14T06:04:45;8.40;99.90
9193;DHT22;4631;49.296;10.560;2023-03-14T06:07:12;8.40;99.90
9193;DHT22;4631;49.296;10.560;2023-03-14T06:09:39;8.40;99.90
9193;DHT22;4631;49.296;10.560;2023-03-14T06:12:07;8.40;99.90
9193;DHT22;4631;49.296;10.560;2023-03-14T06:14:33;8.40;99.90
9193;DHT22;4631;49.296;10.560;2023-03-14T06:17:00;8.40;99.90
9193;DHT22;4631;49.296;10.560;2023-03-14T06:19:27;8.40;99.90
9193;DHT22;4631;49.296;10.560;2023-03-14T06:21:53;8.40;99.90
9193;DHT22;4631;49.296;10.560;2023-03-14T06:24:20;8.40;99.90
9193;DHT22;4631;49.296;10.560;2023-03-14T06:26:47;8.40;99.90
9193;DHT22;4631;49.296;10.560;2023-03-14T06:29:14;8.40;99.90
9193;DHT22;4631;49.296;10.560;2023-03-14T06:31:41;8.50;99.90
9193;DHT22;4631;49.296;10.560;2023-03-14T06:34:08;8.40;99.90
9193;DHT22;4631;49.296;10.560;2023-03-14T06:36:34;8.50;99.90
9193;DHT22;4631;49.296;10.560;2023-03-14T06:39:01;8.50;99.90
9193;DHT22;4631;49.296;10.560;2023-03-14T06:41:28;8.60;99.90
9193;DHT22;4631;49.296;10.560;2023-03-14T06:43:54;8.60;99.90
9193;DHT22;4631;49.296;10.560;2023-03-14T06:46:22;8.60;99.90
9193;DHT22;4631;49.296;10.560;2023-03-14T06:48:49;8.60;99.90
9193;DHT22;4631;49.296;10.560;2023-03-14T06:51:15;8.60;99.90
9193;DHT22;4631;49.296;10.560;2023-03-14T06:53:42;8.60;99.90
9193;DHT22;4631;49.296;10.560;2023-03-14T06:56:09;8.60;99.90
9193;DHT22;4631;49.296;10.560;2023-03-14T06:58:35;8.70;99.90
9193;DHT22;4631;49.296;10.560;2023-03-14T07:01:02;8.70;99.90
9193;DHT22;4631;49.296;10.560;2023-03-14T07:03:30;8.70;99.90
9193;DHT22;4631;49.296;10.560;2023-03-14T07:05:57;8.80;99.90
9193;DHT22;4631;49.296;10.560;2023-03-14T07:08:25;8.70;99.90
9193;DHT22;4631;49.296;10.560;2023-03-14T07:10:51;8.80;99.90
9193;DHT22;4631;49.296;10.560;2023-03-14T07:13:18;8.80;99.90
9193;DHT22;4631;49.296;10.560;2023-03-14T07:15:45;8.80;99.90
9193;DHT22;4631;49.296;10.560;2023-03-14T07:18:11;8.80;99.90
9193;DHT22;4631;49.296;10.560;2023-03-14T07:20:39;8.90;99.90
9193;DHT22;4631;49.296;10.560;2023-03-14T07:23:06;8.90;99.90
9193;DHT22;4631;49.296;10.560;2023-03-14T07:25:32;9.00;99.90
9193;DHT22;4631;49.296;10.560;2023-03-14T07:27:59;9.00;99.90
9193;DHT22;4631;49.296;10.560;2023-03-14T07:30:25;9.00;99.90
9193;DHT22;4631;49.296;10.560;2023-03-14T07:32:52;9.00;99.90
9193;DHT22;4631;49.296;10.560;2023-03-14T07:35:19;9.10;99.90
9193;DHT22;4631;49.296;10.560;2023-03-14T07:37:47;9.10;99.90
9193;DHT22;4631;49.296;10.560;2023-03-14T07:40:13;9.20;99.90
9193;DHT22;4631;49.296;10.560;2023-03-14T07:42:40;9.20;99.90
9193;DHT22;4631;49.296;10.560;2023-03-14T07:45:07;9.20;99.90
9193;DHT22;4631;49.296;10.560;2023-03-14T07:47:34;9.30;99.90
9193;DHT22;4631;49.296;10.560;2023-03-14T07:50:00;9.30;99.90
9193;DHT22;4631;49.296;10.560;2023-03-14T07:52:27;9.40;99.90
9193;DHT22;4631;49.296;10.560;2023-03-14T07:54:55;9.40;99.90
9193;DHT22;4631;49.296;10.560;2023-03-14T07:57:22;9.40;99.90
9193;DHT22;4631;49.296;10.560;2023-03-14T07:59:49;9.50;99.90
9193;DHT22;4631;49.296;10.560;2023-03-14T08:02:15;9.60;99.90
9193;DHT22;4631;49.296;10.560;2023-03-14T08:04:43;9.70;99.90
9193;DHT22;4631;49.296;10.560;2023-03-14T08:07:09;9.70;99.90
9193;DHT22;4631;49.296;10.560;2023-03-14T08:09:36;9.70;99.90
9193;DHT22;4631;49.296;10.560;2023-03-14T08:12:04;9.80;99.90
9193;DHT22;4631;49.296;10.560;2023-03-14T08:14:31;9.80;99.90
9193;DHT22;4631;49.296;10.560;2023-03-14T08:16:58;9.80;99.90
9193;DHT22;4631;49.296;10.560;2023-03-14T08:19:24;9.80;99.90
9193;DHT22;4631;49.296;10.560;2023-03-14T08:21:51;9.80;99.90
9193;DHT22;4631;49.296;10.560;2023-03-14T08:24:17;9.90;99.90
9193;DHT22;4631;49.296;10.560;2023-03-14T08:26:44;9.90;99.90
9193;DHT22;4631;49.296;10.560;2023-03-14T08:29:12;10.00;99.90
9193;DHT22;4631;49.296;10.560;2023-03-14T08:31:39;10.00;99.90
9193;DHT22;4631;49.296;10.560;2023-03-14T08:34:05;10.00;99.90
9193;DHT22;4631;49.296;10.560;2023-03-14T08:36:32;10.00;99.90
9193;DHT22;4631;49.296;10.560;2023-03-14T08:38:59;10.00;99.90
9193;DHT22;4631;49.296;10.560;2023-03-14T08:41:25;10.00;99.90
9193;DHT22;4631;49.296;10.560;2023-03-14T08:43:52;10.10;99.90
9193;DHT22;4631;49.296;10.560;2023-03-14T08:46:20;10.20;99.90
9193;DHT22;4631;49.296;10.560;2023-03-14T08:48:47;10.30;99.90
9193;DHT22;4631;49.296;10.560;2023-03-14T08:51:13;10.30;99.90
9193;DHT22;4631;49.296;10.560;2023-03-14T08:53:40;10.40;99.90
9193;DHT22;4631;49.296;10.560;2023-03-14T08:56:07;10.40;99.90
9193;DHT22;4631;49.296;10.560;2023-03-14T08:58:35;10.40;99.90
9193;DHT22;4631;49.296;10.560;2023-03-14T09:01:03;10.50;99.90
9193;DHT22;4631;49.296;10.560;2023-03-14T09:03:31;10.50;99.90
9193;DHT22;4631;49.296;10.560;2023-03-14T09:06:01;10.60;99.90
9193;DHT22;4631;49.296;10.560;2023-03-14T09:08:28;10.60;99.90
9193;DHT22;4631;49.296;10.560;2023-03-14T09:10:55;10.70;99.90
9193;DHT22;4631;49.296;10.560;2023-03-14T09:13:21;10.80;99.90
9193;DHT22;4631;49.296;10.560;2023-03-14T09:15:50;10.80;99.90
9193;DHT22;4631;49.296;10.560;2023-03-14T09:18:16;10.80;99.90
9193;DHT22;4631;49.296;10.560;2023-03-14T09:20:44;10.90;99.90
9193;DHT22;4631;49.296;10.560;2023-03-14T09:23:11;10.90;99.90
9193;DHT22;4631;49.296;10.560;2023-03-14T09:25:37;10.90;99.90
9193;DHT22;4631;49.296;10.560;2023-03-14T09:28:04;10.90;99.90
9193;DHT22;4631;49.296;10.560;2023-03-14T09:30:31;11.10;99.90
9193;DHT22;4631;49.296;10.560;2023-03-14T09:32:57;11.10;99.90
9193;DHT22;4631;49.296;10.560;2023-03-14T09:35:24;11.20;99.90
9193;DHT22;4631;49.296;10.560;2023-03-14T09:37:52;11.20;99.90
9193;DHT22;4631;49.296;10.560;2023-03-14T09:40:19;11.20;99.90
9193;DHT22;4631;49.296;10.560;2023-03-14T09:42:46;11.20;99.90
9193;DHT22;4631;49.296;10.560;2023-03-14T09:45:17;11.10;99.90
9193;DHT22;4631;49.296;10.560;2023-03-14T09:47:45;11.10;99.90
9193;DHT22;4631;49.296;10.560;2023-03-14T09:50:13;11.10;99.90
9193;DHT22;4631;49.296;10.560;2023-03-14T09:52:41;11.00;99.90
9193;DHT22;4631;49.296;10.560;2023-03-14T09:55:11;11.00;99.90
9193;DHT22;4631;49.296;10.560;2023-03-14T09:57:39;11.00;99.90
9193;DHT22;4631;49.296;10.560;2023-03-14T10:00:11;11.00;99.90
9193;DHT22;4631;49.296;10.560;2023-03-14T10:02:40;11.00;99.90
9193;DHT22;4631;49.296;10.560;2023-03-14T10:05:13;11.10;99.90
9193;DHT22;4631;49.296;10.560;2023-03-14T10:07:40;11.10;99.90
9193;DHT22;4631;49.296;10.560;2023-03-14T10:10:09;11.10;99.90
9193;DHT22;4631;49.296;10.560;2023-03-14T10:12:38;11.10;99.90
9193;DHT22;4631;49.296;10.560;2023-03-14T10:15:06;11.10;99.90
9193;DHT22;4631;49.296;10.560;2023-03-14T10:17:38;11.20;99.90
9193;DHT22;4631;49.296;10.560;2023-03-14T10:20:05;11.20;99.90
9193;DHT22;4631;49.296;10.560;2023-03-14T10:22:31;11.30;99.90
9193;DHT22;4631;49.296;10.560;2023-03-14T10:24:59;11.30;99.90
9193;DHT22;4631;49.296;10.560;2023-03-14T10:27:28;11.40;99.90
9193;DHT22;4631;49.296;10.560;2023-03-14T10:29:57;11.60;99.90
9193;DHT22;4631;49.296;10.560;2023-03-14T10:32:27;11.70;99.90
9193;DHT22;4631;49.296;10.560;2023-03-14T10:37:47;11.70;99.90
9193;DHT22;4631;49.296;10.560;2023-03-14T10:40:14;11.70;99.90
9193;DHT22;4631;49.296;10.560;2023-03-14T10:42:41;11.60;99.90
9193;DHT22;4631;49.296;10.560;2023-03-14T10:45:22;11.60;99.90
9193;DHT22;4631;49.296;10.560;2023-03-14T10:47:52;11.50;99.90
9193;DHT22;4631;49.296;10.560;2023-03-14T10:50:22;11.50;99.90
9193;DHT22;4631;49.296;10.560;2023-03-14T10:52:49;11.40;99.90
9193;DHT22;4631;49.296;10.560;2023-03-14T10:55:16;11.30;99.90
9193;DHT22;4631;49.296;10.560;2023-03-14T10:57:43;11.20;99.90
9193;DHT22;4631;49.296;10.560;2023-03-14T11:00:13;11.10;99.90
9193;DHT22;4631;49.296;10.560;2023-03-14T11:02:58;11.10;99.90
9193;DHT22;4631;49.296;10.560;2023-03-14T11:05:30;11.00;99.90
9193;DHT22;4631;49.296;10.560;2023-03-14T11:08:01;11.00;99.90
9193;DHT22;4631;49.296;10.560;2023-03-14T11:10:31;11.20;99.90
9193;DHT22;4631;49.296;10.560;2023-03-14T11:13:00;11.40;99.90
9193;DHT22;4631;49.296;10.560;2023-03-14T11:15:32;11.60;99.90
9193;DHT22;4631;49.296;10.560;2023-03-14T11:18:12;11.90;99.90
9193;DHT22;4631;49.296;10.560;2023-03-14T11:20:45;12.20;99.90
9193;DHT22;4631;49.296;10.560;2023-03-14T11:23:13;12.40;99.90
9193;DHT22;4631;49.296;10.560;2023-03-14T11:25:43;12.50;99.90
9193;DHT22;4631;49.296;10.560;2023-03-14T11:28:14;12.70;99.90
9193;DHT22;4631;49.296;10.560;2023-03-14T11:30:45;13.00;99.90
9193;DHT22;4631;49.296;10.560;2023-03-14T11:33:17;13.10;99.90
9193;DHT22;4631;49.296;10.560;2023-03-14T11:35:49;13.20;99.90
9193;DHT22;4631;49.296;10.560;2023-03-14T11:38:23;13.10;99.90
9193;DHT22;4631;49.296;10.560;2023-03-14T11:40:50;12.90;99.90
9193;DHT22;4631;49.296;10.560;2023-03-14T11:43:20;12.80;99.90
9193;DHT22;4631;49.296;10.560;2023-03-14T11:45:47;12.80;99.90
9193;DHT22;4631;49.296;10.560;2023-03-14T11:48:22;12.70;99.90
9193;DHT22;4631;49.296;10.560;2023-03-14T11:50:52;12.60;99.90
9193;DHT22;4631;49.296;10.560;2023-03-14T11:53:19;12.50;99.90
9193;DHT22;4631;49.296;10.560;2023-03-14T11:55:47;12.50;99.90
9193;DHT22;4631;49.296;10.560;2023-03-14T11:58:16;12.70;99.90
9193;DHT22;4631;49.296;10.560;2023-03-14T12:00:45;12.90;99.90
9193;DHT22;4631;49.296;10.560;2023-03-14T12:03:14;12.90;99.90
9193;DHT22;4631;49.296;10.560;2023-03-14T12:05:47;13.00;99.90
9193;DHT22;4631;49.296;10.560;2023-03-14T12:08:34;13.00;99.90
9193;DHT22;4631;49.296;10.560;2023-03-14T12:11:04;13.00;99.90
9193;DHT22;4631;49.296;10.560;2023-03-14T12:13:36;12.90;99.90
9193;DHT22;4631;49.296;10.560;2023-03-14T12:16:04;12.90;99.90
9193;DHT22;4631;49.296;10.560;2023-03-14T12:18:32;12.80;99.90
9193;DHT22;4631;49.296;10.560;2023-03-14T12:21:01;12.80;99.90
9193;DHT22;4631;49.296;10.560;2023-03-14T12:23:33;12.60;99.90
9193;DHT22;4631;49.296;10.560;2023-03-14T12:26:13;12.60;99.90
9193;DHT22;4631;49.296;10.560;2023-03-14T12:28:42;12.40;99.90
9193;DHT22;4631;49.296;10.560;2023-03-14T12:34:00;12.00;99.90
9193;DHT22;4631;49.296;10.560;2023-03-14T12:39:19;11.10;99.90
9193;DHT22;4631;49.296;10.560;2023-03-14T12:41:48;10.80;99.90
9193;DHT22;4631;49.296;10.560;2023-03-14T12:44:37;10.60;99.90
9193;DHT22;4631;49.296;10.560;2023-03-14T12:49:47;10.50;99.90
9193;DHT22;4631;49.296;10.560;2023-03-14T12:52:15;10.50;99.90
9193;DHT22;4631;49.296;10.560;2023-03-14T12:54:44;10.40;99.90
9193;DHT22;4631;49.296;10.560;2023-03-14T12:57:20;10.30;99.90
9193;DHT22;4631;49.296;10.560;2023-03-14T12:59:51;10.30;99.90
9193;DHT22;4631;49.296;10.560;2023-03-14T13:02:24;10.30;99.90
9193;DHT22;4631;49.296;10.560;2023-03-14T13:04:52;10.30;99.90
9193;DHT22;4631;49.296;10.560;2023-03-14T13:07:36;10.30;99.90
9193;DHT22;4631;49.296;10.560;2023-03-14T13:10:24;10.30;99.90
9193;DHT22;4631;49.296;10.560;2023-03-14T13:12:51;10.10;99.90
9193;DHT22;4631;49.296;10.560;2023-03-14T13:15:22;10.00;99.90
9193;DHT22;4631;49.296;10.560;2023-03-14T13:17:50;9.90;99.90
9193;DHT22;4631;49.296;10.560;2023-03-14T13:20:19;9.80;99.90
9193;DHT22;4631;49.296;10.560;2023-03-14T13:22:48;9.70;99.90
9193;DHT22;4631;49.296;10.560;2023-03-14T13:25:15;9.70;99.90
9193;DHT22;4631;49.296;10.560;2023-03-14T13:27:45;9.60;99.90
9193;DHT22;4631;49.296;10.560;2023-03-14T13:30:15;9.60;99.90
9193;DHT22;4631;49.296;10.560;2023-03-14T13:32:43;9.50;99.90
9193;DHT22;4631;49.296;10.560;2023-03-14T13:35:17;9.50;99.90
9193;DHT22;4631;49.296;10.560;2023-03-14T13:37:44;9.50;99.90
9193;DHT22;4631;49.296;10.560;2023-03-14T13:40:23;9.50;99.90
9193;DHT22;4631;49.296;10.560;2023-03-14T13:42:59;9.50;99.90
9193;DHT22;4631;49.296;10.560;2023-03-14T13:45:27;9.50;99.90
9193;DHT22;4631;49.296;10.560;2023-03-14T13:47:54;9.40;99.90
9193;DHT22;4631;49.296;10.560;2023-03-14T13:50:20;9.30;99.90
9193;DHT22;4631;49.296;10.560;2023-03-14T13:52:47;9.30;99.90
9193;DHT22;4631;49.296;10.560;2023-03-14T13:55:20;9.10;99.90
9193;DHT22;4631;49.296;10.560;2023-03-14T13:57:47;8.90;99.90
9193;DHT22;4631;49.296;10.560;2023-03-14T14:00:19;8.70;99.90
9193;DHT22;4631;49.296;10.560;2023-03-14T14:02:46;8.50;99.90
9193;DHT22;4631;49.296;10.560;2023-03-14T14:05:14;8.40;99.90
9193;DHT22;4631;49.296;10.560;2023-03-14T14:07:41;8.40;99.90
9193;DHT22;4631;49.296;10.560;2023-03-14T14:10:09;8.40;99.90
9193;DHT22;4631;49.296;10.560;2023-03-14T14:12:38;8.40;99.90
9193;DHT22;4631;49.296;10.560;2023-03-14T14:15:06;8.30;99.90
9193;DHT22;4631;49.296;10.560;2023-03-14T14:17:35;8.20;99.90
9193;DHT22;4631;49.296;10.560;2023-03-14T14:20:04;8.10;99.90
9193;DHT22;4631;49.296;10.560;2023-03-14T14:22:32;8.00;99.90
9193;DHT22;4631;49.296;10.560;2023-03-14T14:24:59;7.90;99.90
9193;DHT22;4631;49.296;10.560;2023-03-14T14:27:28;7.80;99.90
9193;DHT22;4631;49.296;10.560;2023-03-14T14:29:57;7.70;99.90
9193;DHT22;4631;49.296;10.560;2023-03-14T14:32:24;7.60;99.90
9193;DHT22;4631;49.296;10.560;2023-03-14T14:34:59;7.50;99.90
9193;DHT22;4631;49.296;10.560;2023-03-14T14:37:26;7.40;99.90
9193;DHT22;4631;49.296;10.560;2023-03-14T14:39:54;7.30;99.90
9193;DHT22;4631;49.296;10.560;2023-03-14T14:42:21;7.20;99.90
9193;DHT22;4631;49.296;10.560;2023-03-14T14:44:51;7.10;99.90
9193;DHT22;4631;49.296;10.560;2023-03-14T14:47:18;7.00;99.90
9193;DHT22;4631;49.296;10.560;2023-03-14T14:49:46;7.00;99.90
9193;DHT22;4631;49.296;10.560;2023-03-14T14:52:15;7.00;99.90
9193;DHT22;4631;49.296;10.560;2023-03-14T14:54:43;7.00;99.90
9193;DHT22;4631;49.296;10.560;2023-03-14T14:57:17;6.90;99.90
9193;DHT22;4631;49.296;10.560;2023-03-14T14:59:44;6.90;99.90
9193;DHT22;4631;49.296;10.560;2023-03-14T15:02:16;6.90;99.90
9193;DHT22;4631;49.296;10.560;2023-03-14T15:04:50;6.90;99.90
9193;DHT22;4631;49.296;10.560;2023-03-14T15:07:17;6.90;99.90
9193;DHT22;4631;49.296;10.560;2023-03-14T15:09:44;6.90;99.90
9193;DHT22;4631;49.296;10.560;2023-03-14T15:12:11;6.90;99.90
9193;DHT22;4631;49.296;10.560;2023-03-14T15:14:38;7.00;99.90
9193;DHT22;4631;49.296;10.560;2023-03-14T15:17:05;7.00;99.90
9193;DHT22;4631;49.296;10.560;2023-03-14T15:19:32;7.10;99.90
9193;DHT22;4631;49.296;10.560;2023-03-14T15:21:58;7.20;99.90
9193;DHT22;4631;49.296;10.560;2023-03-14T15:24:26;7.30;99.90
9193;DHT22;4631;49.296;10.560;2023-03-14T15:26:53;7.30;99.90
9193;DHT22;4631;49.296;10.560;2023-03-14T15:29:20;7.30;99.90
9193;DHT22;4631;49.296;10.560;2023-03-14T15:31:46;7.30;99.90
9193;DHT22;4631;49.296;10.560;2023-03-14T15:34:13;7.30;99.90
9193;DHT22;4631;49.296;10.560;2023-03-14T15:36:40;7.40;99.90
9193;DHT22;4631;49.296;10.560;2023-03-14T15:39:06;7.30;99.90
9193;DHT22;4631;49.296;10.560;2023-03-14T15:41:34;7.30;99.90
9193;DHT22;4631;49.296;10.560;2023-03-14T15:44:01;7.40;99.90
9193;DHT22;4631;49.296;10.560;2023-03-14T15:46:28;7.30;99.90
9193;DHT22;4631;49.296;10.560;2023-03-14T15:48:54;7.30;99.90
9193;DHT22;4631;49.296;10.560;2023-03-14T15:51:21;7.30;99.90
9193;DHT22;4631;49.296;10.560;2023-03-14T15:53:47;7.30;99.90
9193;DHT22;4631;49.296;10.560;2023-03-14T15:56:15;7.30;99.90
9193;DHT22;4631;49.296;10.560;2023-03-14T15:58:43;7.30;99.90
9193;DHT22;4631;49.296;10.560;2023-03-14T16:01:12;7.30;99.90
9193;DHT22;4631;49.296;10.560;2023-03-14T16:03:38;7.30;99.90
9193;DHT22;4631;49.296;10.560;2023-03-14T16:06:05;7.30;99.90
9193;DHT22;4631;49.296;10.560;2023-03-14T16:08:32;7.30;99.90
9193;DHT22;4631;49.296;10.560;2023-03-14T16:10:58;7.30;99.90
9193;DHT22;4631;49.296;10.560;2023-03-14T16:13:25;7.30;99.90
9193;DHT22;4631;49.296;10.560;2023-03-14T16:15:54;7.20;99.90